Latest Weather Observations for St Helens

IDT60801

Issued at 6:05 pm EST Wednesday 23 April 2014 (issued every 30 minutes, with the page automatically refreshed every 10 minutes)

About weather observations | Map of weather stations | Latest weather observations for TAS | Other Formats
Station Details ID: 092120 Name: ST HELENS AERODROME Lat: -41.34 Lon: 148.28 Height: 48.0 m
Data from the previous 72 hours. | See also: Recent months at St Helens
Date/Time
EST
Temp
°C
App
Temp
°C
Dew
Point
Rel
Hum
%
Delta-T
°C
Wind Press
QNH
hPa
Press
MSL
hPa
Rain
since 9 am
mm
Dir
 
Spd
km/h
Gust
km/h
Spd
kts
Gust
kts
23/06:00pm 13.4 12.2 9.5 77 2.0 NNW 6 9 3 5 1011.2 1011.1 0.0
23/05:30pm 13.1 12.3 9.5 79 1.8 N 4 9 2 5 1011.2 - 0.0
23/05:00pm 13.8 12.4 9.6 76 2.2 N 7 11 4 6 1011.2 - 0.0
23/04:30pm 13.5 11.3 9.4 76 2.1 W 11 20 6 11 1011.5 - 0.0
23/04:00pm 15.4 13.5 7.7 60 3.8 NNW 7 13 4 7 1011.4 - 0.0
23/03:30pm 15.6 12.4 6.9 56 4.3 WNW 13 22 7 12 1011.4 - 0.0
23/03:00pm 16.4 13.3 7.3 55 4.5 WNW 13 20 7 11 1011.5 1011.4 0.0
23/02:30pm 16.4 13.3 7.1 54 4.6 W 13 20 7 11 1011.6 - 0.0
23/02:00pm 16.7 14.2 8.4 58 4.2 NNW 11 15 6 8 1012.0 - 0.0
23/01:30pm 16.4 13.4 7.9 57 4.3 NNW 13 20 7 11 1012.2 - 0.0
23/01:00pm 15.7 12.4 6.4 54 4.5 WNW 13 22 7 12 1012.6 - 0.0
23/12:30pm 16.4 13.4 7.6 56 4.4 WNW 13 24 7 13 1013.1 - 0.0
23/12:00pm 15.9 13.5 8.6 62 3.7 NNW 11 17 6 9 1013.6 1013.5 0.0
23/11:30am 15.6 13.8 8.1 61 3.8 NW 7 13 4 7 1014.2 - 0.0
23/11:00am 16.3 13.7 7.8 57 4.3 NNW 11 20 6 11 1014.7 - 0.0
23/10:30am 14.9 13.0 7.7 62 3.6 NW 7 11 4 6 1014.9 - 0.0
23/10:00am 13.6 11.9 7.4 66 3.0 W 6 9 3 5 1015.2 - 0.0
23/09:30am 11.7 9.6 6.8 72 2.3 NW 7 11 4 6 1015.5 - 0.0
23/09:00am 10.5 8.4 6.5 76 1.9 NNW 7 11 4 6 1015.5 1015.5 0.2
23/08:30am 9.0 6.9 5.7 80 1.5 SW 6 9 3 5 1015.7 - 0.2
23/08:00am 7.8 5.7 5.6 86 1.0 NW 6 11 3 6 1015.7 - 0.2
23/07:30am 7.4 5.1 5.7 89 0.8 NW 7 15 4 8 1015.7 - 0.2
23/07:00am 7.1 5.0 5.7 91 0.6 N 6 9 3 5 1015.5 - 0.2
23/06:30am 7.3 4.9 5.3 87 0.9 NW 7 9 4 5 1015.2 - 0.2
23/06:00am 6.9 3.7 5.2 89 0.8 NW 11 15 6 8 1015.2 1015.2 0.2
23/05:30am 7.3 4.6 5.6 89 0.8 NNW 9 13 5 7 1014.7 - 0.2
23/05:00am 8.5 6.2 4.9 78 1.6 WSW 6 7 3 4 1014.7 - 0.2
23/04:30am 8.6 5.8 5.0 78 1.6 NW 9 13 5 7 1014.8 - 0.2
23/04:00am 8.6 6.7 4.8 77 1.7 SW 4 13 2 7 1014.6 - 0.2
23/03:30am 8.8 6.3 5.0 77 1.7 WNW 7 13 4 7 1014.5 - 0.2
23/03:00am 9.4 6.9 4.8 73 2.1 WNW 7 11 4 6 1014.6 1014.6 0.2
23/02:30am 9.4 7.1 5.0 74 2.0 W 6 9 3 5 1014.6 - 0.2
23/02:00am 9.5 7.9 6.2 80 1.5 WSW 4 9 2 5 1014.6 - 0.2
23/01:30am 9.4 7.1 5.9 79 1.6 WNW 7 13 4 7 1014.7 - 0.2
23/01:00am 9.5 7.5 6.2 80 1.5 NNW 6 11 3 6 1014.7 - 0.2
23/12:30am 9.4 6.6 5.2 75 1.9 NW 9 13 5 7 1014.8 - 0.2
23/12:00am 9.3 6.9 7.1 86 1.0 NNW 9 11 5 6 1014.7 1014.7 0.2
 
Date/Time
EST
Temp
°C
App
Temp
°C
Dew
Point
Rel
Hum
%
Delta-T
°C
Wind Press
QNH
hPa
Press
MSL
hPa
Rain
since 9 am
mm
Dir
 
Spd
km/h
Gust
km/h
Spd
kts
Gust
kts
22/11:30pm 9.6 8.0 6.5 81 1.4 NNW 4 11 2 6 1014.6 - 0.2
22/11:00pm 10.1 7.8 7.3 83 1.3 NW 9 11 5 6 1014.5 - 0.2
22/10:30pm 10.5 8.2 7.6 82 1.4 NNW 9 13 5 7 1014.3 - 0.2
22/10:00pm 11.0 8.9 6.7 75 2.0 NNW 7 9 4 5 1014.1 - 0.2
22/09:30pm 11.3 10.0 7.8 79 1.7 NNW 4 7 2 4 1013.8 - 0.2
22/09:00pm 11.8 10.3 8.5 80 1.6 NNW 6 9 3 5 1013.3 1013.2 0.2
22/08:30pm 12.2 10.3 9.0 81 1.6 NNW 9 13 5 7 1012.8 - 0.2
22/08:00pm 12.4 11.0 9.4 82 1.5 N 7 11 4 6 1012.3 - 0.2
22/07:30pm 13.4 12.1 9.8 79 1.9 NNW 7 13 4 7 1011.7 - 0.2
22/07:00pm 14.2 12.8 9.4 73 2.5 WNW 7 11 4 6 1011.3 - 0.2
22/06:30pm 14.1 12.7 9.5 74 2.4 W 7 13 4 7 1010.9 - 0.2
22/06:00pm 15.0 13.3 9.8 71 2.7 WNW 9 15 5 8 1010.4 1010.3 0.2
22/05:30pm 15.7 14.0 9.8 68 3.1 WNW 9 17 5 9 1010.0 - 0.2
22/05:00pm 17.1 15.4 9.8 62 3.8 NW 9 15 5 8 1009.5 - 0.2
22/04:30pm 17.8 15.3 9.7 59 4.3 WNW 13 20 7 11 1009.1 - 0.2
22/04:00pm 18.6 15.9 9.1 54 5.0 WNW 13 20 7 11 1008.8 - 0.2
22/03:30pm 19.3 16.5 8.6 50 5.6 NW 13 24 7 13 1008.6 - 0.2
22/03:00pm 19.6 16.3 6.3 42 6.7 WNW 13 20 7 11 1008.2 1008.2 0.2
22/02:30pm 19.4 16.4 7.8 47 6.0 W 13 22 7 12 1007.9 - 0.2
22/02:00pm 18.7 14.8 8.7 52 5.2 W 19 33 10 18 1007.3 - 0.2
22/01:30pm 18.8 15.1 9.6 55 4.9 WNW 19 33 10 18 1007.4 - 0.2
22/01:00pm 19.2 15.7 10.2 56 4.8 W 19 37 10 20 1007.9 - 0.2
22/12:30pm 18.7 16.3 11.3 62 4.0 W 15 32 8 17 1007.8 - 0.2
22/12:00pm 18.6 16.3 11.9 65 3.7 WNW 15 26 8 14 1007.9 1007.9 0.2
22/11:30am 18.1 16.8 12.5 70 3.1 WNW 11 20 6 11 1008.2 - 0.2
22/11:00am 16.2 14.5 12.6 79 2.0 NNW 13 24 7 13 1008.3 - 0.2
22/10:30am 15.9 13.9 12.8 82 1.7 NNW 15 24 8 13 1008.1 - 0.2
22/10:00am 15.6 13.7 12.9 84 1.5 NW 15 22 8 12 1008.2 - 0.2
22/09:30am 15.1 13.3 13.3 89 1.0 NW 15 22 8 12 1008.2 - 0.2
22/09:00am 14.9 12.7 13.4 91 0.8 NNW 17 24 9 13 1008.6 1008.5 7.2
22/08:30am 15.0 12.5 13.4 90 0.9 NW 19 32 10 17 1008.8 - 5.0
22/08:00am 15.6 13.0 13.1 85 1.4 WNW 19 26 10 14 1008.5 - 3.6
22/07:30am 15.4 12.9 13.4 88 1.1 NW 19 39 10 21 1007.8 - 3.6
22/07:00am 15.8 13.0 13.3 85 1.4 NW 20 35 11 19 1007.7 - 2.8
22/06:30am 15.4 13.2 13.4 88 1.1 WNW 17 28 9 15 1007.4 - 2.6
22/06:00am 15.4 11.8 13.1 86 1.3 WNW 24 43 13 23 1007.3 1007.3 2.2
22/05:30am 16.9 12.1 11.8 72 2.8 NW 28 50 15 27 1007.0 - 1.8
22/05:24am 17.0 12.3 11.9 72 2.8 NW 28 50 15 27 1007.2 - 1.8
22/05:00am 16.9 12.8 11.6 71 2.9 NW 24 50 13 27 1007.2 - 1.8
22/04:30am 15.9 12.9 11.9 77 2.2 NW 19 35 10 19 1007.1 - 1.8
22/04:00am 16.2 13.0 12.0 76 2.3 NW 20 35 11 19 1007.2 - 1.8
22/03:30am 16.2 12.3 12.0 76 2.3 NW 24 39 13 21 1007.3 - 1.8
22/03:00am 15.7 12.6 12.3 80 1.9 WNW 20 35 11 19 1007.5 1007.5 1.8
22/02:30am 15.4 11.9 12.3 82 1.7 NW 22 43 12 23 1008.1 - 1.8
22/02:00am 15.4 12.6 12.5 83 1.6 NW 19 37 10 20 1008.8 - 1.8
22/01:30am 15.5 12.6 12.4 82 1.7 WNW 19 35 10 19 1009.6 - 1.8
22/01:00am 14.7 12.9 12.2 85 1.4 N 13 20 7 11 1009.9 - 1.8
22/12:30am 14.3 12.9 12.2 87 1.1 NNW 11 20 6 11 1010.6 - 1.8
22/12:00am 13.5 12.8 11.9 90 0.9 NW 7 11 4 6 1011.2 1011.1 1.8
 
Date/Time
EST
Temp
°C
App
Temp
°C
Dew
Point
Rel
Hum
%
Delta-T
°C
Wind Press
QNH
hPa
Press
MSL
hPa
Rain
since 9 am
mm
Dir
 
Spd
km/h
Gust
km/h
Spd
kts
Gust
kts
21/11:30pm 13.6 12.7 11.5 87 1.1 WNW 7 13 4 7 1011.8 - 1.8
21/11:00pm 14.0 11.9 11.3 84 1.4 NNW 13 20 7 11 1011.9 - 1.8
21/10:30pm 13.2 12.0 11.6 90 0.9 NNW 9 17 5 9 1012.2 - 1.6
21/10:00pm 13.1 12.2 11.5 90 0.9 N 7 13 4 7 1012.7 - 1.6
21/09:30pm 12.8 12.1 11.5 92 0.7 N 6 13 3 7 1013.0 - 1.6
21/09:00pm 12.8 12.1 11.5 92 0.7 N 6 13 3 7 1013.2 1013.1 1.6
21/08:30pm 13.0 11.7 11.4 90 0.8 NNW 9 13 5 7 1013.5 - 1.4
21/08:00pm 13.1 11.0 11.3 89 1.0 NNW 13 20 7 11 1013.7 - 1.4
21/07:30pm 13.1 10.8 11.8 92 0.7 N 15 22 8 12 1013.8 - 1.2
21/07:00pm 13.3 9.7 11.7 90 0.9 N 22 30 12 16 1014.2 - 0.8
21/06:30pm 12.3 10.3 11.4 94 0.5 N 13 19 7 10 1013.8 - 0.8
21/06:00pm 11.5 10.3 10.2 92 0.7 N 7 11 4 6 1014.1 1014.0 0.8
21/05:30pm 11.3 10.2 9.9 91 0.7 NNW 6 9 3 5 1014.5 - 0.6
21/05:00pm 11.2 10.4 9.6 90 0.8 WNW 4 9 2 5 1014.7 - 0.6
21/04:30pm 11.3 10.4 9.4 88 1.0 NW 4 7 2 4 1014.8 - 0.4
21/04:00pm 11.6 10.2 9.0 84 1.3 W 6 13 3 7 1015.5 - 0.4
21/03:30pm 11.8 10.4 8.8 82 1.5 NNW 6 9 3 5 1015.7 - 0.4
21/03:00pm 11.5 11.2 8.5 82 1.5 CALM 0 4 0 2 1016.0 1016.0 0.4
21/02:30pm 11.4 10.7 8.4 82 1.5 W 2 7 1 4 1015.8 - 0.4
21/02:00pm 11.2 9.6 8.2 82 1.5 NW 6 9 3 5 1016.2 - 0.4
21/01:30pm 11.1 9.8 7.8 80 1.6 WNW 4 7 2 4 1017.0 - 0.4
21/01:00pm 11.0 9.7 7.7 80 1.6 WNW 4 9 2 5 1017.4 - 0.4
21/12:30pm 11.0 10.2 8.2 83 1.4 WNW 2 7 1 4 1017.9 - 0.4
21/12:00pm 11.5 10.9 7.2 75 2.1 CALM 0 0 0 0 1018.1 1018.1 0.0
21/11:30am 11.4 10.3 7.1 75 2.1 SW 2 9 1 5 1018.4 - 0.0
21/11:00am 12.2 11.2 5.4 63 3.2 CALM 0 6 0 3 1018.8 - 0.0
21/10:30am 12.3 10.4 4.8 60 3.4 S 4 7 2 4 1018.9 - 0.0
21/10:00am 11.9 9.8 6.0 67 2.8 WNW 6 9 3 5 1019.3 - 0.0
21/09:30am 10.5 8.3 6.1 74 2.0 NW 7 11 4 6 1019.4 - 0.0
21/09:00am 9.3 7.1 6.2 81 1.4 NW 7 9 4 5 1019.5 1019.5 0.2
21/08:30am 7.4 4.3 5.5 88 0.8 NW 11 13 6 7 1019.7 - 0.0
21/08:00am 6.2 3.7 5.0 92 0.5 NW 7 13 4 7 1019.3 - 0.0
21/07:30am 5.8 2.9 4.6 92 0.5 NW 9 13 5 7 1019.2 - 0.0
21/07:00am 5.8 2.6 4.9 94 0.4 NNW 11 15 6 8 1018.8 - 0.0
21/06:30am 5.9 3.1 5.0 94 0.4 NW 9 13 5 7 1018.7 - 0.0
21/06:00am 6.1 3.3 5.1 93 0.4 NW 9 13 5 7 1018.4 1018.4 0.0
21/05:30am 6.9 4.8 5.8 93 0.5 NW 6 9 3 5 1017.9 - 0.0
21/05:00am 7.7 5.6 6.5 92 0.6 NW 7 11 4 6 1017.5 - 0.0
21/04:30am 8.3 6.2 6.8 90 0.7 NW 7 11 4 6 1017.3 - 0.0
21/04:00am 8.5 6.7 7.0 90 0.7 NW 6 9 3 5 1016.8 - 0.0
21/03:30am 8.6 7.1 6.7 88 0.9 NNW 4 9 2 5 1016.7 - 0.0
21/03:00am 8.9 7.0 7.5 91 0.7 NNW 7 9 4 5 1016.4 1016.4 0.0
21/02:30am 8.9 7.0 7.5 91 0.7 NNW 7 11 4 6 1016.2 - 0.0
21/02:00am 8.9 7.9 7.5 91 0.7 SSW 2 9 1 5 1016.0 - 0.0
21/01:30am 8.9 6.4 8.0 94 0.4 NNW 11 15 6 8 1016.0 - 0.0
21/01:00am 9.1 7.0 8.2 94 0.4 NW 9 13 5 7 1015.6 - 0.0
21/12:30am 9.1 6.9 8.0 93 0.5 NNW 9 11 5 6 1015.2 - 0.0
21/12:00am 10.3 8.7 8.7 90 0.8 NW 7 9 4 5 1014.8 1014.8 0.0
 
Date/Time
EST
Temp
°C
App
Temp
°C
Dew
Point
Rel
Hum
%
Delta-T
°C
Wind Press
QNH
hPa
Press
MSL
hPa
Rain
since 9 am
mm
Dir
 
Spd
km/h
Gust
km/h
Spd
kts
Gust
kts
20/11:30pm 11.1 10.1 8.7 85 1.2 W 4 7 2 4 1014.8 - 0.0
20/11:00pm 9.3 7.7 7.9 91 0.7 NE 6 9 3 5 1014.6 - 0.0
20/10:30pm 10.9 9.2 9.7 92 0.6 NNW 9 13 5 7 1014.2 - 0.0
20/10:00pm 11.7 10.3 9.6 87 1.1 NNW 7 11 4 6 1014.0 - 0.0
20/09:30pm 11.7 10.3 9.6 87 1.1 NW 7 11 4 6 1013.8 - 0.0
20/09:00pm 11.6 9.9 9.9 89 0.9 NW 9 11 5 6 1013.5 1013.4 0.0
20/08:30pm 12.2 10.9 9.8 85 1.2 NW 7 11 4 6 1013.2 - 0.0
20/08:00pm 11.9 10.4 9.3 84 1.3 NW 7 11 4 6 1012.8 - 0.0
20/07:30pm 13.2 11.4 9.5 78 1.9 NNW 9 11 5 6 1012.4 - 0.0
20/07:00pm 13.0 11.7 9.3 78 1.9 NW 6 9 3 5 1012.1 - 0.0
20/06:30pm 13.9 12.4 9.1 73 2.4 NNW 7 9 4 5 1011.8 - 0.0

Other Formats:

Comma delimited format used in spreadsheet applications
http://www.bom.gov.au/fwo/IDT60801/IDT60801.95981.axf

JavaScript Object Notation format (JSON) in row-major order
http://www.bom.gov.au/fwo/IDT60801/IDT60801.95981.json